Time;durP1;ratioP1;P1;durP2;ratioP2;P2;SDS_P1;SDS_P2;PMS_P1;PMS_P2;Temp;Humidity;BMP_temperature;BMP_pressure;BME280_temperature;BME280_humidity;BME280_pressure;Samples;Min_cycle;Max_cycle;Signal;HPM_P1;HPM_P2
2023/03/04 00:01:12;;;;;;;41.73;22.37;;;;;;;2.52;68.42;100111.84;6149999;23;20179;-78
2023/03/04 00:03:37;;;;;;;48.27;26.30;;;;;;;2.48;68.62;100116.22;6146403;23;20229;-78
2023/03/04 00:06:03;;;;;;;35.50;23.23;;;;;;;2.47;68.63;100119.72;6148074;23;20207;-78
2023/03/04 00:08:29;;;;;;;29.00;22.35;;;;;;;2.48;68.80;100118.81;6148361;23;20210;-77
2023/03/04 00:10:55;;;;;;;39.83;21.60;;;;;;;2.42;68.65;100117.19;6147933;23;20205;-77
2023/03/04 00:13:21;;;;;;;33.63;20.23;;;;;;;2.38;68.77;100125.09;6147289;23;20186;-78
2023/03/04 00:15:47;;;;;;;45.80;23.73;;;;;;;2.28;68.96;100128.78;6146973;23;20157;-79
2023/03/04 00:18:13;;;;;;;35.20;22.98;;;;;;;2.18;69.73;100118.59;6147334;23;20178;-78
2023/03/04 00:20:38;;;;;;;42.03;25.63;;;;;;;2.08;69.89;100126.59;6147432;23;20641;-78
2023/03/04 00:23:04;;;;;;;37.03;24.63;;;;;;;2.04;69.79;100127.53;6147926;23;20173;-79
2023/03/04 00:25:29;;;;;;;37.43;23.40;;;;;;;1.98;70.16;100128.53;6147311;23;20183;-77
2023/03/04 00:27:57;;;;;;;36.57;20.97;;;;;;;1.91;70.11;100126.94;6146674;23;20245;-79
2023/03/04 00:30:23;;;;;;;39.35;23.92;;;;;;;1.88;70.33;100125.25;6147307;23;20258;-77
2023/03/04 00:32:48;;;;;;;39.23;23.23;;;;;;;1.91;70.54;100126.94;6147697;23;20164;-77
2023/03/04 00:35:14;;;;;;;45.55;29.10;;;;;;;1.98;70.61;100128.53;6146001;23;20489;-77
2023/03/04 00:37:39;;;;;;;40.57;26.20;;;;;;;2.04;70.59;100133.56;6145863;23;20197;-78
2023/03/04 00:40:05;;;;;;;35.63;22.83;;;;;;;2.08;70.39;100126.59;6146130;23;20266;-77
2023/03/04 00:42:30;;;;;;;35.53;24.20;;;;;;;2.10;70.25;100141.22;6144576;23;20287;-79
2023/03/04 00:44:57;;;;;;;40.05;22.95;;;;;;;2.11;70.23;100131.72;6145042;23;21121;-77
2023/03/04 00:47:22;;;;;;;35.67;21.83;;;;;;;2.13;70.43;100135.13;6146580;23;20643;-78
2023/03/04 00:49:47;;;;;;;36.80;22.33;;;;;;;2.16;70.29;100137.66;6147321;23;20198;-78
2023/03/04 00:52:13;;;;;;;38.20;22.20;;;;;;;2.09;69.71;100139.53;6146502;23;20179;-78
2023/03/04 00:54:38;;;;;;;32.63;20.00;;;;;;;2.02;70.45;100129.31;6145219;23;20183;-78
2023/03/04 00:57:04;;;;;;;35.27;22.10;;;;;;;1.96;70.34;100128.53;6147092;23;20261;-78
2023/03/04 00:59:32;;;;;;;35.37;19.60;;;;;;;1.94;70.35;100135.50;6148166;23;20278;-78
2023/03/04 01:02:02;;;;;;;38.75;22.83;;;;;;;1.94;70.41;100135.50;6147269;23;20171;-79
2023/03/04 01:04:33;;;;;;;29.00;20.25;;;;;;;1.94;70.53;100132.91;6146405;23;20254;-78
2023/03/04 01:06:59;;;;;;;37.20;19.63;;;;;;;1.92;70.49;100132.09;6148953;23;20209;-78
2023/03/04 01:09:28;;;;;;;36.47;21.10;;;;;;;1.91;70.46;100125.19;6150334;23;20286;-78
2023/03/04 01:12:05;;;;;;;38.45;23.25;;;;;;;1.91;70.40;100127.78;6151191;23;20476;-77
2023/03/04 01:14:31;;;;;;;37.47;21.63;;;;;;;1.93;70.17;100128.59;6148134;23;20174;-78
2023/03/04 01:16:56;;;;;;;43.30;21.67;;;;;;;1.94;70.21;100124.28;6148699;23;20194;-77
2023/03/04 01:19:22;;;;;;;38.00;21.80;;;;;;;1.95;70.12;100121.66;6148107;23;20213;-77
2023/03/04 01:21:47;;;;;;;38.93;21.93;;;;;;;1.95;70.21;100124.25;6149757;23;20170;-77
2023/03/04 01:24:13;;;;;;;46.55;21.23;;;;;;;1.95;70.21;100118.22;6148907;23;20207;-77
2023/03/04 01:26:39;;;;;;;42.40;23.07;;;;;;;1.94;70.03;100119.94;6148505;23;20625;-79
2023/03/04 01:29:05;;;;;;;35.50;21.23;;;;;;;1.93;69.85;100123.44;6149240;23;20298;-78
2023/03/04 01:31:30;;;;;;;33.47;20.73;;;;;;;1.90;69.78;100120.91;6149476;23;20167;-77
2023/03/04 01:33:56;;;;;;;33.87;20.17;;;;;;;1.85;69.98;100117.53;6149094;23;20182;-78
2023/03/04 01:36:21;;;;;;;38.20;22.80;;;;;;;1.76;70.14;100117.75;6149860;23;20170;-78
2023/03/04 01:38:46;;;;;;;41.23;21.70;;;;;;;1.73;70.27;100120.41;6149337;23;20179;-78
2023/03/04 01:41:13;;;;;;;36.10;22.47;;;;;;;1.65;70.16;100111.91;6149900;23;20158;-78
2023/03/04 01:43:39;;;;;;;32.55;16.90;;;;;;;1.60;70.08;100111.16;6148985;23;20174;-78
2023/03/04 01:46:05;;;;;;;32.20;21.27;;;;;;;1.52;70.48;100117.31;6149030;23;20540;-78
2023/03/04 01:48:35;;;;;;;38.08;21.35;;;;;;;1.50;70.24;100115.63;6147076;23;20637;-77
2023/03/04 01:51:06;;;;;;;42.17;23.35;;;;;;;1.47;70.32;100110.50;6150161;23;20200;-77
2023/03/04 01:53:32;;;;;;;37.85;20.92;;;;;;;1.48;70.36;100110.47;6148327;23;20172;-77
2023/03/04 01:56:24;;;;;;;35.33;21.23;;;;;;;1.45;70.22;100101.91;6149161;23;20507;-78
2023/03/04 01:59:13;;;;;;;39.20;24.92;;;;;;;1.39;70.46;100109.81;6146689;23;20810;-77
2023/03/04 02:01:42;;;;;;;29.30;19.03;;;;;;;1.38;70.51;100106.38;5686946;23;10001164;-77
2023/03/04 02:04:08;;;;;;;29.90;19.40;;;;;;;1.36;70.57;100105.53;6149409;23;20178;-77
2023/03/04 02:06:37;;;;;;;28.85;17.25;;;;;;;1.32;70.51;100106.47;6149575;23;20178;-77
2023/03/04 02:09:03;;;;;;;37.53;18.98;;;;;;;1.22;70.54;100104.94;6149433;23;20195;-78
2023/03/04 02:11:29;;;;;;;33.65;18.50;;;;;;;1.12;70.53;100101.63;6147671;23;20626;-77
2023/03/04 02:13:55;;;;;;;32.07;19.40;;;;;;;1.05;70.87;100102.63;6146926;23;20182;-78
2023/03/04 02:16:21;;;;;;;27.42;17.70;;;;;;;1.00;70.68;100102.72;6147818;23;20411;-78
2023/03/04 02:18:46;;;;;;;29.20;18.00;;;;;;;0.97;71.02;100102.72;6147998;23;20238;-79
2023/03/04 02:21:28;;;;;;;38.20;20.03;;;;;;;0.97;70.72;100100.16;6156759;23;20765;-90
2023/03/04 02:24:14;;;;;;;37.35;20.20;;;;;;;0.94;70.84;100100.19;6165953;23;20190;-91
2023/03/04 02:26:48;;;;;;;42.92;23.05;;;;;;;0.93;70.60;100108.84;6166027;23;20550;-90
2023/03/04 02:29:31;;;;;;;;;;;;;;;;;;;;;
2023/03/04 02:31:59;;;;;;;41.15;21.08;;;;;;;0.94;70.82;100102.78;6164988;23;20911;-90
2023/03/04 02:34:42;;;;;;;34.47;20.27;;;;;;;0.98;70.67;100104.47;6166376;23;20147;-90
2023/03/04 02:37:21;;;;;;;37.38;17.95;;;;;;;0.98;70.36;100104.47;6164977;23;20181;-90
2023/03/04 02:40:00;;;;;;;32.70;20.63;;;;;;;0.92;70.39;100101.97;6167478;23;20234;-91
2023/03/04 02:42:32;;;;;;;37.28;21.00;;;;;;;0.89;70.91;100104.59;6166376;23;20204;-92
2023/03/04 02:45:03;;;;;;;35.90;19.03;;;;;;;0.92;70.93;100104.56;6165753;23;20222;-90
2023/03/04 02:47:38;;;;;;;34.83;19.42;;;;;;;0.93;70.55;100108.00;6167307;23;20205;-91
2023/03/04 02:50:22;;;;;;;34.53;21.60;;;;;;;0.91;71.01;100107.16;6166151;23;20188;-91
2023/03/04 02:53:01;;;;;;;36.17;20.60;;;;;;;0.86;70.87;100104.66;6166709;23;20237;-91
2023/03/04 02:55:41;;;;;;;41.00;21.85;;;;;;;0.85;70.97;100113.28;6168482;23;20253;-90
2023/03/04 02:58:09;;;;;;;31.08;19.33;;;;;;;0.86;70.88;100107.22;6166062;23;20484;-90
2023/03/04 03:00:35;;;;;;;33.92;20.80;;;;;;;0.86;70.79;100104.66;6167954;23;20437;-91
2023/03/04 03:03:01;;;;;;;37.85;21.08;;;;;;;0.83;70.93;100102.97;6176242;23;20225;-90
2023/03/04 03:05:32;;;;;;;41.50;27.88;;;;;;;0.85;71.02;100103.81;6178681;23;20455;-90
2023/03/04 03:07:58;;;;;;;39.78;26.52;;;;;;;0.87;71.48;100108.97;6178452;23;20174;-90
2023/03/04 03:10:25;;;;;;;36.83;21.10;;;;;;;0.88;71.44;100096.00;6173935;23;20687;-90
2023/03/04 03:12:53;;;;;;;30.77;19.77;;;;;;;0.91;71.23;100099.41;6173612;23;20418;-91
2023/03/04 03:15:19;;;;;;;42.30;22.35;;;;;;;0.91;70.90;100105.44;6179771;23;20197;-90
2023/03/04 03:17:46;;;;;;;33.80;20.42;;;;;;;0.91;71.14;100110.59;6174604;23;20183;-90
2023/03/04 03:20:16;;;;;;;33.75;21.08;;;;;;;0.91;70.86;100102.84;6174386;23;20249;-91
2023/03/04 03:22:42;;;;;;;32.50;19.70;;;;;;;0.90;70.84;100108.91;6173031;23;20561;-90
2023/03/04 03:25:11;;;;;;;34.30;20.10;;;;;;;0.91;70.71;100102.00;6171787;23;20759;-90
2023/03/04 03:27:37;;;;;;;36.03;20.40;;;;;;;0.90;70.64;100103.72;6174008;23;20182;-89
2023/03/04 03:30:05;;;;;;;40.10;19.97;;;;;;;0.92;70.74;100103.69;6173100;23;20594;-91
2023/03/04 03:32:32;;;;;;;34.72;20.23;;;;;;;0.90;70.77;100100.31;6173054;23;20182;-91
2023/03/04 03:34:58;;;;;;;32.22;18.75;;;;;;;0.84;70.43;100096.94;6174331;23;20184;-90
2023/03/04 03:37:23;;;;;;;35.33;19.37;;;;;;;0.75;70.70;100106.56;6174172;23;20201;-90
2023/03/04 03:39:51;;;;;;;44.10;20.55;;;;;;;0.65;70.52;100113.63;6148169;23;20179;-89
2023/03/04 03:42:17;;;;;;;30.27;20.37;;;;;;;0.59;71.07;100109.38;6174040;23;20183;-90
2023/03/04 03:44:43;;;;;;;36.87;19.13;;;;;;;0.59;70.89;100109.38;6174482;23;20213;-91
2023/03/04 03:47:13;;;;;;;29.60;19.25;;;;;;;0.58;70.83;100105.09;6174401;23;20181;-90
2023/03/04 03:49:49;;;;;;;37.58;19.73;;;;;;;0.57;70.90;100105.97;6176276;23;20177;-90
2023/03/04 03:52:14;;;;;;;42.10;22.92;;;;;;;0.56;71.06;100106.81;6175465;23;20575;-90
2023/03/04 03:54:42;;;;;;;36.57;19.67;;;;;;;0.54;70.84;100116.34;6181661;23;20242;-90
2023/03/04 03:57:08;;;;;;;31.42;19.70;;;;;;;0.50;70.82;100117.25;6189076;23;20174;-90
2023/03/04 03:59:33;;;;;;;43.40;21.20;;;;;;;0.45;70.84;100119.06;6188772;23;20507;-89
2023/03/04 04:01:59;;;;;;;34.30;20.20;;;;;;;0.42;71.03;100113.94;6176472;23;20170;-89
2023/03/04 04:04:25;;;;;;;36.10;22.73;;;;;;;0.39;71.15;100116.56;6175442;23;20447;-89
2023/03/04 04:06:55;;;;;;;37.38;22.40;;;;;;;0.37;71.29;100119.16;6172510;23;20164;-90
2023/03/04 04:09:21;;;;;;;33.13;21.42;;;;;;;0.38;71.12;100123.47;6181048;23;20173;-90
2023/03/04 04:11:56;;;;;;;28.85;17.52;;;;;;;0.38;71.18;100122.63;6179989;23;20162;-90
2023/03/04 04:14:24;;;;;;;27.10;17.25;;;;;;;0.36;70.95;100129.53;6181234;23;20257;-90
2023/03/04 04:16:52;;;;;;;33.33;18.25;;;;;;;0.36;71.48;100129.53;6172057;23;20191;-90
2023/03/04 04:19:23;;;;;;;32.23;19.70;;;;;;;0.32;70.88;100122.69;6173655;23;20185;-91
2023/03/04 04:21:48;;;;;;;23.20;16.95;;;;;;;0.30;70.94;100132.19;6169650;23;20205;-90
2023/03/04 04:24:14;;;;;;;34.97;20.00;;;;;;;0.27;71.06;100121.88;6173542;23;20781;-90
2023/03/04 04:26:40;;;;;;;26.00;18.63;;;;;;;0.27;71.29;100122.78;6165550;23;20209;-90
2023/03/04 04:29:06;;;;;;;34.95;18.88;;;;;;;0.28;71.11;100126.19;6166719;23;20419;-90
2023/03/04 04:31:39;;;;;;;29.30;16.50;;;;;;;0.26;70.88;100120.19;6167492;23;20170;-91
2023/03/04 04:34:10;;;;;;;36.58;18.35;;;;;;;0.25;70.94;100118.50;6166359;23;20171;-90
2023/03/04 04:36:35;;;;;;;27.05;17.15;;;;;;;0.24;71.01;100122.78;6166576;23;20186;-90
2023/03/04 04:39:04;;;;;;;34.40;18.60;;;;;;;0.27;70.77;100125.34;6166485;23;20276;-89
2023/03/04 04:41:35;;;;;;;33.97;18.60;;;;;;;0.28;70.84;100124.47;6166739;23;20325;-91
2023/03/04 04:44:01;;;;;;;31.45;19.05;;;;;;;0.26;70.80;100121.03;6167624;23;20452;-91
2023/03/04 04:46:34;;;;;;;33.57;18.07;;;;;;;0.25;70.84;100127.09;6166305;23;20182;-90
2023/03/04 04:49:02;;;;;;;35.83;20.63;;;;;;;0.27;70.57;100129.63;6174217;23;20168;-90
2023/03/04 04:51:31;;;;;;;31.58;18.98;;;;;;;0.26;70.62;100131.38;6165656;23;20184;-90
2023/03/04 04:54:00;;;;;;;45.80;20.77;;;;;;;0.26;70.54;100127.94;6165374;23;20162;-90
2023/03/04 04:56:36;;;;;;;29.58;18.52;;;;;;;0.24;70.52;100124.53;6164215;23;20172;-90
2023/03/04 04:59:06;;;;;;;47.00;20.37;;;;;;;0.14;70.36;100132.41;6165414;23;20175;-91
2023/03/04 05:01:34;;;;;;;32.47;19.75;;;;;;;0.03;70.56;100130.81;6166856;23;20503;-90
2023/03/04 05:04:55;;;;;;;29.50;17.08;;;;;;;-0.03;71.12;100139.47;6166164;23;20178;-90
2023/03/04 05:07:24;;;;;;;28.75;17.23;;;;;;;-0.07;70.93;100136.09;6138197;23;20205;-90
2023/03/04 05:09:49;;;;;;;23.83;16.65;;;;;;;-0.09;70.96;100134.41;6164837;23;20186;-90
2023/03/04 05:12:18;;;;;;;28.03;16.80;;;;;;;-0.17;70.90;100134.47;6166972;23;20185;-90
2023/03/04 05:14:43;;;;;;;28.67;16.80;;;;;;;-0.27;71.13;100138.91;6165080;23;20256;-90
2023/03/04 05:17:14;;;;;;;33.77;18.73;;;;;;;-0.35;70.91;100140.72;6166022;23;20198;-91
2023/03/04 05:19:39;;;;;;;27.80;16.05;;;;;;;-0.44;71.33;100135.63;6166487;23;20174;-90
2023/03/04 05:22:05;;;;;;;24.17;15.67;;;;;;;-0.49;71.39;100137.41;6165703;23;20288;-90
2023/03/04 05:24:31;;;;;;;20.30;14.40;;;;;;;-0.57;71.19;100131.47;6166951;23;20199;-90
2023/03/04 05:27:00;;;;;;;25.95;15.35;;;;;;;-0.61;71.57;100140.13;6165470;23;20178;-90
2023/03/04 05:29:28;;;;;;;19.58;14.90;;;;;;;-0.65;71.58;100141.00;6140653;23;20186;-90
2023/03/04 05:31:54;;;;;;;26.13;15.10;;;;;;;-0.69;71.36;100142.78;6166707;23;20289;-91
2023/03/04 05:34:19;;;;;;;26.23;16.50;;;;;;;-0.68;71.48;100141.88;6166987;23;20667;-90
2023/03/04 05:36:54;;;;;;;32.17;16.53;;;;;;;-0.70;71.33;100143.66;6170916;23;20512;-90
2023/03/04 05:39:20;;;;;;;22.52;15.25;;;;;;;-0.70;71.75;100147.06;6177336;23;20563;-89
2023/03/04 05:41:45;;;;;;;26.23;16.30;;;;;;;-0.65;71.43;100146.16;6165707;23;20201;-90
2023/03/04 05:44:11;;;;;;;27.43;17.90;;;;;;;-0.64;71.40;100147.91;6081640;23;20656;-89
2023/03/04 05:46:37;;;;;;;27.03;15.83;;;;;;;-0.67;71.22;100149.63;6079893;23;20265;-90
2023/03/04 05:49:02;;;;;;;29.57;17.37;;;;;;;-0.70;71.17;100156.53;6103144;23;20191;-90
2023/03/04 05:51:28;;;;;;;36.40;16.80;;;;;;;-0.70;71.17;100152.25;6103898;23;20186;-89
2023/03/04 05:53:53;;;;;;;28.97;17.20;;;;;;;-0.69;71.48;100150.50;6104392;23;21247;-89
2023/03/04 05:56:32;;;;;;;29.63;17.30;;;;;;;-0.67;71.14;100149.63;6111605;23;20348;-91
2023/03/04 05:59:02;;;;;;;31.23;17.15;;;;;;;-0.64;71.21;100146.16;6121768;23;20175;-91
2023/03/04 06:01:30;;;;;;;32.10;17.55;;;;;;;-0.62;71.01;100148.72;6129969;23;20234;-91
2023/03/04 06:04:26;;;;;;;37.13;19.60;;;;;;;-0.61;71.01;100145.28;6108025;23;20807;-90
2023/03/04 06:07:12;;;;;;;31.17;18.00;;;;;;;-0.60;71.15;100147.84;6094578;23;20415;-89
2023/03/04 06:09:42;;;;;;;31.70;17.83;;;;;;;-0.56;71.35;100146.09;6148110;23;20564;-90
2023/03/04 06:12:28;;;;;;;;;;;;;;;;;;;;;
2023/03/04 06:15:04;;;;;;;;;;;;;;;;;;;;;
2023/03/04 06:17:33;;;;;;;35.55;17.13;;;;;;;-0.35;70.53;100160.50;6168711;23;20262;-90
2023/03/04 06:20:19;;;;;;;32.42;19.10;;;;;;;-0.34;70.50;100163.06;6170714;23;20180;-90
2023/03/04 06:22:45;;;;;;;29.60;16.73;;;;;;;-0.34;70.37;100168.22;6173486;23;20170;-91
2023/03/04 06:25:19;;;;;;;31.48;17.70;;;;;;;-0.35;70.42;100173.41;6170824;23;20195;-91
2023/03/04 06:27:58;;;;;;;26.42;18.08;;;;;;;-0.34;70.64;100180.28;6172945;23;20166;-91
2023/03/04 06:30:44;;;;;;;;;;;;;;;;;;;;;
2023/03/04 06:33:13;;;;;;;27.50;16.65;;;;;;;-0.32;70.75;100176.81;6164456;23;20184;-91
2023/03/04 06:35:38;;;;;;;30.05;19.02;;;;;;;-0.29;70.43;100184.53;6169392;23;20203;-91
2023/03/04 06:38:09;;;;;;;34.08;19.55;;;;;;;-0.27;70.44;100182.78;6168772;23;20297;-91
2023/03/04 06:40:54;;;;;;;42.38;19.27;;;;;;;-0.20;70.35;100185.31;6173108;23;20184;-90
2023/03/04 06:43:43;;;;;;;;;;;;;;;;;;;;;
2023/03/04 06:46:37;;;;;;;;;;;;;;;;;;;;;
2023/03/04 06:49:23;;;;;;;30.17;17.98;;;;;;;-0.06;70.12;100188.59;6177320;23;20246;-91
2023/03/04 06:52:14;;;;;;;;;;;;;;;;;;;;;
2023/03/04 06:54:55;;;;;;;31.65;19.30;;;;;;;-0.01;69.81;100186.81;6162010;23;20252;-91
2023/03/04 06:57:38;;;;;;;32.05;18.27;;;;;;;0.01;69.93;100189.38;6171704;23;20248;-90
2023/03/04 07:00:24;;;;;;;;;;;;;;;;;;;;;
2023/03/04 07:02:53;;;;;;;31.35;21.52;;;;;;;0.13;69.94;100199.56;6169347;23;20209;-92
2023/03/04 07:05:18;;;;;;;35.17;19.48;;;;;;;0.20;69.58;100211.53;6165683;23;20198;-90
2023/03/04 07:07:44;;;;;;;38.33;18.93;;;;;;;0.28;69.50;100212.31;6168689;23;20181;-90
2023/03/04 07:10:37;;;;;;;31.27;18.45;;;;;;;0.37;69.44;100209.59;6168566;23;20165;-91
2023/03/04 07:13:57;;;;;;;34.05;18.48;;;;;;;0.44;69.11;100218.16;6166075;23;20172;-90
2023/03/04 07:16:16;;;;;;;26.63;18.55;;;;;;;0.55;69.09;100213.69;6157119;23;20196;-90
2023/03/04 07:18:45;;;;;;;35.90;18.85;;;;;;;0.60;69.14;100213.66;6166979;23;20417;-91
2023/03/04 07:21:21;;;;;;;32.78;19.20;;;;;;;0.67;68.84;100212.66;6163079;23;20304;-91
2023/03/04 07:23:50;;;;;;;34.17;18.70;;;;;;;0.75;68.87;100215.16;6167368;23;20286;-90
2023/03/04 07:26:41;;;;;;;;;;;;;;;;;;;;;
2023/03/04 07:29:22;;;;;;;42.53;22.13;;;;;;;1.02;68.41;100221.66;6103359;23;20207;-89
2023/03/04 07:31:57;;;;;;;39.53;21.92;;;;;;;1.09;68.28;100220.72;6102514;23;20199;-90
2023/03/04 07:34:35;;;;;;;35.30;19.33;;;;;;;1.14;68.17;100223.22;6077120;23;20187;-91
2023/03/04 07:37:14;;;;;;;42.17;22.33;;;;;;;1.17;68.30;100231.78;6102789;23;20251;-91
2023/03/04 07:39:45;;;;;;;35.45;19.50;;;;;;;1.20;68.36;100233.47;6103431;23;20690;-90
2023/03/04 07:42:18;;;;;;;38.45;21.95;;;;;;;1.23;68.42;100231.69;6080560;23;20211;-91
2023/03/04 07:45:01;;;;;;;;;;;;;;;;;;;;;
2023/03/04 07:47:51;;;;;;;32.28;18.27;;;;;;;1.34;68.60;100226.34;6104590;23;20237;-90
2023/03/04 07:50:19;;;;;;;27.77;18.15;;;;;;;1.44;68.30;100230.50;6115619;23;20270;-90
2023/03/04 07:52:57;;;;;;;37.00;18.40;;;;;;;1.53;68.42;100230.34;6151289;23;20993;-90
2023/03/04 07:55:33;;;;;;;45.97;20.73;;;;;;;1.62;68.37;100228.47;6162488;23;20225;-91
2023/03/04 07:58:02;;;;;;;32.63;20.10;;;;;;;1.68;68.19;100237.00;6164480;23;20206;-90
2023/03/04 08:00:47;;;;;;;;;;;;;;;;;;;;;
2023/03/04 08:03:27;;;;;;;39.92;20.17;;;;;;;1.78;68.45;100237.69;6163743;23;20685;-91
2023/03/04 08:06:09;;;;;;;40.85;21.42;;;;;;;1.77;68.52;100242.00;6165202;23;20217;-91
2023/03/04 08:08:46;;;;;;;40.40;20.48;;;;;;;1.77;68.84;100238.56;6165860;23;20162;-91
2023/03/04 08:11:39;;;;;;;;;;;;;;;;;;;;;
2023/03/04 08:14:25;;;;;;;;;;;;;;;;;;;;;
2023/03/04 08:17:14;;;;;;;;;;;;;;;;;;;;;
2023/03/04 08:20:39;;;;;;;;;;;;;;;;;;;;;
2023/03/04 08:24:08;;;;;;;;;;;;;;;;;;;;;
2023/03/04 08:27:08;;;;;;;49.47;23.98;;;;;;;1.72;70.73;100243.81;6165787;23;20268;-94
2023/03/04 08:29:44;;;;;;;63.83;24.58;;;;;;;1.77;70.80;100241.16;6172047;23;20178;-93
2023/03/04 08:32:29;;;;;;;57.72;28.15;;;;;;;1.79;70.82;100247.19;6172907;23;20510;-93
2023/03/04 08:35:18;;;;;;;60.08;25.95;;;;;;;1.86;71.00;100240.16;6170159;23;20249;-94
2023/03/04 08:38:01;;;;;;;;;;;;;;;;;;;;;
2023/03/04 08:40:40;;;;;;;52.45;22.35;;;;;;;1.96;70.69;100242.53;6167654;23;20233;-92
2023/03/04 08:43:18;;;;;;;;;;;;;;;;;;;;;
2023/03/04 08:46:05;;;;;;;50.78;21.83;;;;;;;2.08;70.14;100253.56;6166868;23;20552;-92
2023/03/04 08:48:53;;;;;;;56.35;26.92;;;;;;;2.10;70.33;100255.25;6164429;23;20178;-92
2023/03/04 08:51:39;;;;;;;;;;;;;;;;;;;;;
2023/03/04 08:54:29;;;;;;;45.90;24.52;;;;;;;2.14;70.52;100251.72;6160677;23;20209;-92
2023/03/04 08:57:07;;;;;;;52.55;26.10;;;;;;;2.19;70.38;100254.25;6166936;23;20245;-93
2023/03/04 09:00:27;;;;;;;51.40;22.40;;;;;;;2.22;70.40;100264.53;6166579;23;20170;-93
2023/03/04 09:03:02;;;;;;;57.85;30.55;;;;;;;2.17;70.40;100272.38;6169994;23;20257;-92
2023/03/04 09:05:48;;;;;;;;;;;;;;;;;;;;;
2023/03/04 09:08:49;;;;;;;;;;;;;;;;;;;;;
2023/03/04 09:11:50;;;;;;;48.40;24.63;;;;;;;2.13;70.74;100268.16;6169654;23;20186;-94
2023/03/04 09:14:36;;;;;;;;;;;;;;;;;;;;;
2023/03/04 09:17:25;;;;;;;43.00;23.13;;;;;;;2.14;70.37;100272.44;6175005;23;20282;-93
2023/03/04 09:20:36;;;;;;;53.97;26.67;;;;;;;2.17;70.32;100276.72;6175686;23;20547;-94
2023/03/04 09:27:25;;;;;;;;;;;;;;;;;;;;;
2023/03/04 09:33:03;;;;;;;;;;;;;;;;;;;;;
2023/03/04 09:35:50;;;;;;;;;;;;;;;;;;;;;
2023/03/04 09:38:26;;;;;;;;;;;;;;;;;;;;;
2023/03/04 09:48:15;;;;;;;47.33;23.20;;;;;;;2.37;70.37;100272.00;6156154;23;20961;-92
2023/03/04 09:51:30;;;;;;;;;;;;;;;;;;;;;
2023/03/04 09:54:23;;;;;;;49.58;23.85;;;;;;;2.59;69.82;100271.56;6108172;23;20238;-92
2023/03/04 09:56:53;;;;;;;52.45;25.75;;;;;;;2.66;69.80;100261.06;6113928;23;20575;-93
2023/03/04 09:59:59;;;;;;;;;;;;;;;;;;;;;
2023/03/04 10:02:45;;;;;;;51.70;25.25;;;;;;;2.80;69.51;100267.69;6125107;23;20199;-92
2023/03/04 10:05:35;;;;;;;62.65;33.45;;;;;;;2.88;69.41;100264.03;6115260;23;20486;-90
2023/03/04 10:08:55;;;;;;;65.35;29.42;;;;;;;2.90;69.50;100266.63;6115480;23;20234;-92
2023/03/04 10:11:58;;;;;;;57.35;28.63;;;;;;;2.88;69.17;100261.44;6112886;23;20248;-91
2023/03/04 10:14:46;;;;;;;48.45;24.15;;;;;;;2.90;68.94;100264.03;6109466;23;21311;-93
2023/03/04 10:17:43;;;;;;;56.58;24.45;;;;;;;2.95;68.80;100263.94;6107447;23;20210;-91
2023/03/04 10:21:24;;;;;;;;;;;;;;;;;;;;;
2023/03/04 10:24:09;;;;;;;;;;;;;;;;;;;;;
2023/03/04 10:29:49;;;;;;;47.30;21.35;;;;;;;3.06;68.82;100259.34;6067995;23;20218;-80
2023/03/04 10:32:19;;;;;;;46.40;26.17;;;;;;;3.14;68.39;100261.78;6062616;23;20255;-79
2023/03/04 10:34:45;;;;;;;53.75;29.80;;;;;;;3.10;68.11;100251.44;6058583;23;20426;-81
2023/03/04 10:37:11;;;;;;;65.32;32.13;;;;;;;3.14;68.53;100257.44;6058691;23;20177;-79
2023/03/04 10:39:40;;;;;;;53.20;30.30;;;;;;;3.13;68.77;100254.84;6058412;23;20549;-81
2023/03/04 10:42:23;;;;;;;64.57;32.47;;;;;;;3.11;68.58;100254.91;6062161;23;20197;-77
2023/03/04 10:44:53;;;;;;;56.45;31.08;;;;;;;3.15;68.83;100253.09;6060298;23;20235;-77
2023/03/04 10:47:18;;;;;;;61.95;35.58;;;;;;;3.21;68.96;100247.75;6084471;23;20201;-77
2023/03/04 10:49:54;;;;;;;63.13;32.37;;;;;;;3.15;68.70;100248.75;6059853;23;20224;-77
2023/03/04 10:52:48;;;;;;;79.55;37.55;;;;;;;3.15;68.65;100243.56;6061784;23;20181;-77
2023/03/04 10:55:22;;;;;;;52.25;29.65;;;;;;;3.22;68.53;100245.13;6060925;23;20176;-77
2023/03/04 10:57:52;;;;;;;51.33;30.85;;;;;;;3.26;68.62;100241.56;6058981;23;20628;-77
2023/03/04 11:00:33;;;;;;;59.13;30.45;;;;;;;3.39;68.28;100238.69;6059164;23;20228;-77
2023/03/04 11:03:21;;;;;;;55.45;28.65;;;;;;;3.46;68.05;100240.25;6059821;23;20181;-77
2023/03/04 11:05:47;;;;;;;64.90;36.50;;;;;;;3.48;68.24;100241.03;6049051;23;20466;-77
2023/03/04 11:08:18;;;;;;;61.03;34.87;;;;;;;3.46;68.54;100235.06;6059409;23;20472;-77
2023/03/04 11:10:44;;;;;;;66.10;33.10;;;;;;;3.54;68.49;100231.38;6060011;23;20217;-77
2023/03/04 11:13:17;;;;;;;55.40;33.73;;;;;;;3.61;68.08;100226.88;6058777;23;20188;-77
2023/03/04 11:15:57;;;;;;;44.92;30.35;;;;;;;3.62;67.92;100233.78;6058194;23;20412;-77
2023/03/04 11:18:29;;;;;;;60.80;32.65;;;;;;;3.68;67.70;100231.03;6060033;23;20181;-77
2023/03/04 11:20:56;;;;;;;59.53;29.60;;;;;;;3.64;67.79;100231.13;6060279;23;20193;-77
2023/03/04 11:23:34;;;;;;;54.72;29.02;;;;;;;3.68;67.65;100225.84;6059393;23;20578;-77
2023/03/04 11:26:09;;;;;;;50.60;27.77;;;;;;;3.78;67.25;100221.25;6059731;23;20524;-77
2023/03/04 11:28:59;;;;;;;50.15;24.23;;;;;;;3.88;67.33;100217.50;6059401;23;20208;-77
2023/03/04 11:31:43;;;;;;;55.08;28.30;;;;;;;4.04;66.90;100207.56;6059636;23;20248;-77
2023/03/04 11:34:28;;;;;;;54.40;31.08;;;;;;;4.15;66.53;100209.88;6060137;23;20257;-77
2023/03/04 11:37:02;;;;;;;54.10;28.33;;;;;;;4.34;66.27;100202.41;6060148;23;20216;-77
2023/03/04 11:39:53;;;;;;;49.40;27.05;;;;;;;4.53;65.88;100193.16;6059107;23;20178;-77
2023/03/04 11:42:51;;;;;;;55.15;30.20;;;;;;;4.62;65.20;100185.09;6060288;23;20612;-77
2023/03/04 11:45:46;;;;;;;66.25;35.10;;;;;;;4.66;64.68;100188.44;6059324;23;20200;-77
2023/03/04 11:48:36;;;;;;;57.80;31.40;;;;;;;4.64;65.18;100179.84;6030965;23;20195;-78
2023/03/04 11:51:23;;;;;;;64.45;35.90;;;;;;;4.74;65.13;100172.59;6060215;23;20204;-77
2023/03/04 11:54:14;;;;;;;48.50;28.27;;;;;;;4.80;64.92;100162.84;6060887;23;20504;-77
2023/03/04 11:56:56;;;;;;;53.20;31.05;;;;;;;4.78;65.02;100151.66;6058964;23;20185;-77
2023/03/04 11:59:52;;;;;;;45.38;24.75;;;;;;;4.90;64.71;100153.00;6082530;23;20268;-78
2023/03/04 12:02:20;;;;;;;51.00;28.42;;;;;;;4.96;64.64;100152.81;6060264;23;20296;-77
2023/03/04 12:05:08;;;;;;;52.00;28.10;;;;;;;5.05;64.35;100151.66;6060263;23;20484;-77
2023/03/04 12:08:13;;;;;;;55.03;28.73;;;;;;;5.12;64.27;100141.91;6056382;23;20428;-77
2023/03/04 12:10:53;;;;;;;55.88;28.95;;;;;;;5.17;64.38;100137.41;6060395;23;20506;-77
2023/03/04 12:13:55;;;;;;;41.47;23.38;;;;;;;5.25;64.05;100131.03;6059990;23;20184;-78
2023/03/04 12:16:50;;;;;;;52.15;26.25;;;;;;;5.28;63.88;100124.88;6058805;23;20504;-78
2023/03/04 12:19:43;;;;;;;39.80;26.70;;;;;;;5.36;64.12;100115.03;6058556;23;20544;-77
2023/03/04 12:22:25;;;;;;;45.63;27.05;;;;;;;5.47;64.01;100105.09;6059702;23;20517;-77
2023/03/04 12:25:12;;;;;;;46.08;28.85;;;;;;;5.57;63.63;100102.19;6060037;23;20215;-77
2023/03/04 12:28:02;;;;;;;54.78;29.67;;;;;;;5.65;63.33;100098.41;6056991;23;20260;-77
2023/03/04 12:30:37;;;;;;;48.83;29.77;;;;;;;5.76;63.32;100087.59;6059476;23;20184;-77
2023/03/04 12:33:26;;;;;;;51.85;30.15;;;;;;;5.86;63.14;100086.38;6058245;23;20167;-77
2023/03/04 12:35:56;;;;;;;47.97;27.85;;;;;;;5.90;62.68;100087.94;6058966;23;20612;-78
2023/03/04 12:38:25;;;;;;;54.00;30.40;;;;;;;5.98;62.49;100083.31;6058311;23;20699;-77
2023/03/04 12:41:09;;;;;;;48.85;27.75;;;;;;;6.11;62.41;100072.44;6059906;23;20228;-77
2023/03/04 12:43:51;;;;;;;42.60;26.08;;;;;;;6.26;62.41;100068.38;6080995;23;20267;-77
2023/03/04 12:46:40;;;;;;;47.20;24.80;;;;;;;6.40;61.91;100066.97;6060098;23;20200;-77
2023/03/04 12:49:23;;;;;;;46.20;25.88;;;;;;;6.54;61.88;100065.56;6059917;23;20212;-77
2023/03/04 12:51:49;;;;;;;46.00;25.85;;;;;;;6.65;61.61;100061.59;6058723;23;20213;-78
2023/03/04 12:54:31;;;;;;;55.20;26.97;;;;;;;6.77;61.34;100052.41;6058334;23;20185;-78